sensor_id;sensor_type;location;lat;lon;timestamp;pressure;altitude;pressure_sealevel;temperature;humidity
24752;BME280;27246;52.376;4.628;2022-11-20T00:03:14;101281.22;;;1.36;63.70
24752;BME280;27246;52.376;4.628;2022-11-20T00:08:16;101278.59;;;1.11;63.68
24752;BME280;27246;52.376;4.628;2022-11-20T00:13:17;101284.97;;;1.23;63.76
24752;BME280;27246;52.376;4.628;2022-11-20T00:18:20;101296.63;;;1.36;62.92
24752;BME280;27246;52.376;4.628;2022-11-20T00:23:22;101288.28;;;1.26;62.44
24752;BME280;27246;52.376;4.628;2022-11-20T00:28:25;101282.47;;;1.19;63.53
24752;BME280;27246;52.376;4.628;2022-11-20T00:33:27;101282.00;;;1.26;63.93
24752;BME280;27246;52.376;4.628;2022-11-20T00:38:30;101283.78;;;1.14;63.80
24752;BME280;27246;52.376;4.628;2022-11-20T00:43:32;101293.22;;;1.21;63.50
24752;BME280;27246;52.376;4.628;2022-11-20T00:48:34;101279.66;;;1.21;64.00
24752;BME280;27246;52.376;4.628;2022-11-20T00:53:36;101274.66;;;1.15;64.96
24752;BME280;27246;52.376;4.628;2022-11-20T00:58:39;101266.13;;;1.08;64.20
24752;BME280;27246;52.376;4.628;2022-11-20T01:03:47;101267.38;;;1.15;64.44
24752;BME280;27246;52.376;4.628;2022-11-20T01:08:52;101260.66;;;1.21;63.91
24752;BME280;27246;52.376;4.628;2022-11-20T01:13:55;101264.56;;;1.17;64.38
24752;BME280;27246;52.376;4.628;2022-11-20T01:19:01;101251.56;;;1.09;63.86
24752;BME280;27246;52.376;4.628;2022-11-20T01:24:07;101264.03;;;1.12;64.54
24752;BME280;27246;52.376;4.628;2022-11-20T01:29:14;101257.44;;;1.03;65.11
24752;BME280;27246;52.376;4.628;2022-11-20T01:34:18;101255.59;;;1.04;66.62
24752;BME280;27246;52.376;4.628;2022-11-20T01:39:22;101252.38;;;0.98;66.30
24752;BME280;27246;52.376;4.628;2022-11-20T01:49:57;101230.59;;;0.87;66.04
24752;BME280;27246;52.376;4.628;2022-11-20T01:55:07;101227.53;;;0.92;66.18
24752;BME280;27246;52.376;4.628;2022-11-20T02:00:13;101223.56;;;0.85;66.02
24752;BME280;27246;52.376;4.628;2022-11-20T02:10:18;101236.31;;;0.95;65.41
24752;BME280;27246;52.376;4.628;2022-11-20T02:15:20;101235.63;;;0.68;66.65
24752;BME280;27246;52.376;4.628;2022-11-20T02:20:28;101234.53;;;0.57;68.29
24752;BME280;27246;52.376;4.628;2022-11-20T02:25:32;101220.69;;;0.49;68.85
24752;BME280;27246;52.376;4.628;2022-11-20T02:30:35;101213.72;;;0.71;69.19
24752;BME280;27246;52.376;4.628;2022-11-20T02:35:43;101217.41;;;0.57;69.14
24752;BME280;27246;52.376;4.628;2022-11-20T02:40:45;101213.94;;;0.68;69.11
24752;BME280;27246;52.376;4.628;2022-11-20T02:45:56;101209.38;;;0.68;68.67
24752;BME280;27246;52.376;4.628;2022-11-20T02:50:57;101208.72;;;0.65;68.61
24752;BME280;27246;52.376;4.628;2022-11-20T02:56:23;101199.50;;;0.67;68.51
24752;BME280;27246;52.376;4.628;2022-11-20T03:01:25;101204.22;;;0.39;69.41
24752;BME280;27246;52.376;4.628;2022-11-20T03:06:27;101202.50;;;0.38;69.79
24752;BME280;27246;52.376;4.628;2022-11-20T03:11:29;101199.25;;;0.20;70.91
24752;BME280;27246;52.376;4.628;2022-11-20T03:16:31;101188.97;;;0.26;71.23
24752;BME280;27246;52.376;4.628;2022-11-20T03:21:34;101180.59;;;0.42;70.81
24752;BME280;27246;52.376;4.628;2022-11-20T03:26:35;101179.75;;;0.28;71.08
24752;BME280;27246;52.376;4.628;2022-11-20T03:31:39;101172.91;;;0.23;70.94
24752;BME280;27246;52.376;4.628;2022-11-20T03:36:44;101157.00;;;0.18;71.38
24752;BME280;27246;52.376;4.628;2022-11-20T03:41:46;101158.06;;;0.28;71.54
24752;BME280;27246;52.376;4.628;2022-11-20T03:46:48;101149.38;;;0.36;70.69
24752;BME280;27246;52.376;4.628;2022-11-20T03:51:49;101152.03;;;0.12;70.60
24752;BME280;27246;52.376;4.628;2022-11-20T03:56:51;101145.81;;;0.23;70.80
24752;BME280;27246;52.376;4.628;2022-11-20T04:01:53;101138.09;;;0.29;70.90
24752;BME280;27246;52.376;4.628;2022-11-20T04:06:54;101131.19;;;0.38;70.78
24752;BME280;27246;52.376;4.628;2022-11-20T04:11:56;101115.13;;;0.35;71.26
24752;BME280;27246;52.376;4.628;2022-11-20T04:16:59;101115.91;;;0.24;71.60
24752;BME280;27246;52.376;4.628;2022-11-20T04:22:01;101118.75;;;-0.03;72.20
24752;BME280;27246;52.376;4.628;2022-11-20T04:27:02;101107.50;;;-0.10;72.41
24752;BME280;27246;52.376;4.628;2022-11-20T04:32:04;101109.34;;;-0.49;73.23
24752;BME280;27246;52.376;4.628;2022-11-20T04:37:06;101105.56;;;-0.21;73.57
24752;BME280;27246;52.376;4.628;2022-11-20T04:42:08;101103.81;;;0.04;71.41
24752;BME280;27246;52.376;4.628;2022-11-20T04:47:29;101098.09;;;-0.17;70.73
24752;BME280;27246;52.376;4.628;2022-11-20T04:52:35;101088.91;;;-0.14;72.90
24752;BME280;27246;52.376;4.628;2022-11-20T04:57:36;101089.63;;;0.00;71.48
24752;BME280;27246;52.376;4.628;2022-11-20T05:02:38;101079.22;;;0.07;70.33
24752;BME280;27246;52.376;4.628;2022-11-20T05:07:40;101085.31;;;-0.02;70.76
24752;BME280;27246;52.376;4.628;2022-11-20T05:12:42;101092.78;;;0.07;70.72
24752;BME280;27246;52.376;4.628;2022-11-20T05:17:51;101091.78;;;0.08;70.66
24752;BME280;27246;52.376;4.628;2022-11-20T05:22:56;101115.41;;;-0.20;71.77
24752;BME280;27246;52.376;4.628;2022-11-20T05:27:58;101087.47;;;-0.46;73.01
24752;BME280;27246;52.376;4.628;2022-11-20T05:33:00;101091.03;;;-0.20;72.32
24752;BME280;27246;52.376;4.628;2022-11-20T05:38:03;101105.44;;;-0.32;72.61
24752;BME280;27246;52.376;4.628;2022-11-20T05:43:04;101100.50;;;-0.25;72.10
24752;BME280;27246;52.376;4.628;2022-11-20T05:48:06;101094.41;;;-0.16;72.52
24752;BME280;27246;52.376;4.628;2022-11-20T05:53:16;101095.41;;;-0.17;72.06
24752;BME280;27246;52.376;4.628;2022-11-20T05:58:19;101090.06;;;-0.06;72.28
24752;BME280;27246;52.376;4.628;2022-11-20T06:03:21;101086.06;;;-0.00;71.54
24752;BME280;27246;52.376;4.628;2022-11-20T06:08:22;101089.66;;;-0.25;72.39
24752;BME280;27246;52.376;4.628;2022-11-20T06:13:25;101079.66;;;-0.12;72.54
24752;BME280;27246;52.376;4.628;2022-11-20T06:18:28;101076.00;;;-0.24;73.01
24752;BME280;27246;52.376;4.628;2022-11-20T06:23:31;101059.88;;;-0.12;72.83
24752;BME280;27246;52.376;4.628;2022-11-20T06:28:34;101055.66;;;-0.16;72.44
24752;BME280;27246;52.376;4.628;2022-11-20T06:33:36;101067.97;;;0.00;72.91
24752;BME280;27246;52.376;4.628;2022-11-20T06:38:39;101048.63;;;-0.32;73.07
24752;BME280;27246;52.376;4.628;2022-11-20T06:43:41;101044.94;;;-0.56;73.52
24752;BME280;27246;52.376;4.628;2022-11-20T06:48:43;101033.78;;;-0.52;74.26
24752;BME280;27246;52.376;4.628;2022-11-20T06:53:45;101035.97;;;-0.31;73.54
24752;BME280;27246;52.376;4.628;2022-11-20T06:58:47;101040.72;;;-0.48;73.86
24752;BME280;27246;52.376;4.628;2022-11-20T07:03:49;101048.97;;;-0.49;74.10
24752;BME280;27246;52.376;4.628;2022-11-20T07:08:55;101042.25;;;-0.56;74.89
24752;BME280;27246;52.376;4.628;2022-11-20T07:14:14;101042.69;;;-0.37;73.95
24752;BME280;27246;52.376;4.628;2022-11-20T07:19:20;101047.44;;;-0.53;74.49
24752;BME280;27246;52.376;4.628;2022-11-20T07:24:23;101051.13;;;-0.54;75.57
24752;BME280;27246;52.376;4.628;2022-11-20T07:29:26;101031.31;;;-0.55;75.42
24752;BME280;27246;52.376;4.628;2022-11-20T07:34:28;101032.91;;;-0.40;74.97
24752;BME280;27246;52.376;4.628;2022-11-20T07:39:54;101029.13;;;-0.50;75.02
24752;BME280;27246;52.376;4.628;2022-11-20T07:44:59;101026.88;;;-0.43;75.67
24752;BME280;27246;52.376;4.628;2022-11-20T07:50:03;101031.84;;;-0.37;74.55
24752;BME280;27246;52.376;4.628;2022-11-20T07:55:06;101029.25;;;-0.38;75.14
24752;BME280;27246;52.376;4.628;2022-11-20T08:00:38;101041.16;;;-0.41;74.96
24752;BME280;27246;52.376;4.628;2022-11-20T08:05:41;101027.94;;;-0.33;76.14
24752;BME280;27246;52.376;4.628;2022-11-20T08:10:43;101029.69;;;-0.45;76.07
24752;BME280;27246;52.376;4.628;2022-11-20T08:15:49;101024.19;;;-0.43;76.15
24752;BME280;27246;52.376;4.628;2022-11-20T08:20:51;101035.56;;;-0.64;77.21
24752;BME280;27246;52.376;4.628;2022-11-20T08:25:54;101023.41;;;-0.58;77.83
24752;BME280;27246;52.376;4.628;2022-11-20T08:31:02;101022.34;;;-0.55;78.30
24752;BME280;27246;52.376;4.628;2022-11-20T08:36:04;101021.88;;;-0.36;78.22
24752;BME280;27246;52.376;4.628;2022-11-20T08:41:06;101014.50;;;-0.22;77.49
24752;BME280;27246;52.376;4.628;2022-11-20T08:46:38;101007.97;;;-0.06;77.36
24752;BME280;27246;52.376;4.628;2022-11-20T08:51:40;101007.31;;;0.03;77.66
24752;BME280;27246;52.376;4.628;2022-11-20T08:56:42;101000.41;;;-0.01;76.92
24752;BME280;27246;52.376;4.628;2022-11-20T09:01:52;101002.50;;;0.07;76.69
24752;BME280;27246;52.376;4.628;2022-11-20T09:06:55;101002.78;;;-0.09;76.88
24752;BME280;27246;52.376;4.628;2022-11-20T09:11:56;100991.94;;;-0.09;77.47
24752;BME280;27246;52.376;4.628;2022-11-20T09:16:59;100988.56;;;-0.00;77.57
24752;BME280;27246;52.376;4.628;2022-11-20T09:22:05;100971.13;;;0.04;77.63
24752;BME280;27246;52.376;4.628;2022-11-20T09:27:07;100976.78;;;0.01;77.92
24752;BME280;27246;52.376;4.628;2022-11-20T09:32:09;100959.91;;;0.22;77.95
24752;BME280;27246;52.376;4.628;2022-11-20T09:37:10;100977.06;;;0.33;78.14
24752;BME280;27246;52.376;4.628;2022-11-20T09:58:32;100939.59;;;0.63;78.40
24752;BME280;27246;52.376;4.628;2022-11-20T10:09:29;100920.16;;;0.69;78.05
24752;BME280;27246;52.376;4.628;2022-11-20T10:14:37;100903.94;;;0.80;78.00
24752;BME280;27246;52.376;4.628;2022-11-20T10:25:34;100889.22;;;0.71;78.09
24752;BME280;27246;52.376;4.628;2022-11-20T10:30:41;100878.03;;;0.76;78.10
24752;BME280;27246;52.376;4.628;2022-11-20T10:41:18;100845.03;;;0.82;78.94
24752;BME280;27246;52.376;4.628;2022-11-20T10:46:34;100845.72;;;0.73;78.45
24752;BME280;27246;52.376;4.628;2022-11-20T10:57:06;100821.81;;;0.67;79.05
24752;BME280;27246;52.376;4.628;2022-11-20T11:02:51;100808.53;;;0.75;79.67
24752;BME280;27246;52.376;4.628;2022-11-20T11:07:55;100807.78;;;0.95;78.98
24752;BME280;27246;52.376;4.628;2022-11-20T11:12:57;100806.19;;;0.93;80.08
24752;BME280;27246;52.376;4.628;2022-11-20T11:17:59;100794.00;;;0.98;80.34
24752;BME280;27246;52.376;4.628;2022-11-20T11:23:05;100780.19;;;0.90;80.86
24752;BME280;27246;52.376;4.628;2022-11-20T11:33:29;100755.78;;;0.68;83.89
24752;BME280;27246;52.376;4.628;2022-11-20T11:38:42;100747.91;;;0.76;84.63
24752;BME280;27246;52.376;4.628;2022-11-20T11:43:55;100740.13;;;0.83;85.54
24752;BME280;27246;52.376;4.628;2022-11-20T11:49:19;100721.38;;;0.91;86.34
24752;BME280;27246;52.376;4.628;2022-11-20T12:00:09;100688.56;;;0.94;88.58
24752;BME280;27246;52.376;4.628;2022-11-20T12:05:32;100667.88;;;1.04;89.81
24752;BME280;27246;52.376;4.628;2022-11-20T12:16:14;100671.38;;;1.16;92.16
24752;BME280;27246;52.376;4.628;2022-11-20T12:42:39;100607.09;;;1.28;96.18
24752;BME280;27246;52.376;4.628;2022-11-20T12:54:01;100604.72;;;1.34;96.64
24752;BME280;27246;52.376;4.628;2022-11-20T13:09:28;100602.13;;;1.33;97.19
24752;BME280;27246;52.376;4.628;2022-11-20T13:14:37;100584.84;;;1.34;98.68
24752;BME280;27246;52.376;4.628;2022-11-20T13:19:42;100572.56;;;1.51;99.02
24752;BME280;27246;52.376;4.628;2022-11-20T13:24:51;100580.09;;;1.47;99.06
24752;BME280;27246;52.376;4.628;2022-11-20T13:30:01;100573.34;;;1.42;99.80
24752;BME280;27246;52.376;4.628;2022-11-20T13:35:04;100553.91;;;1.36;100.00
24752;BME280;27246;52.376;4.628;2022-11-20T13:45:31;100507.13;;;1.54;100.00
24752;BME280;27246;52.376;4.628;2022-11-20T13:55:42;100494.81;;;1.50;100.00
24752;BME280;27246;52.376;4.628;2022-11-20T14:01:00;100492.41;;;1.56;100.00
24752;BME280;27246;52.376;4.628;2022-11-20T14:06:12;100498.66;;;1.47;100.00
24752;BME280;27246;52.376;4.628;2022-11-20T14:11:17;100489.81;;;1.45;100.00
24752;BME280;27246;52.376;4.628;2022-11-20T14:16:21;100486.25;;;1.45;100.00
24752;BME280;27246;52.376;4.628;2022-11-20T14:21:26;100474.56;;;1.54;100.00
24752;BME280;27246;52.376;4.628;2022-11-20T14:26:28;100479.31;;;1.62;100.00
24752;BME280;27246;52.376;4.628;2022-11-20T14:31:30;100473.88;;;1.62;100.00
24752;BME280;27246;52.376;4.628;2022-11-20T14:36:33;100465.91;;;1.70;100.00
24752;BME280;27246;52.376;4.628;2022-11-20T14:41:35;100459.78;;;1.77;100.00
24752;BME280;27246;52.376;4.628;2022-11-20T14:46:36;100446.09;;;1.89;100.00
24752;BME280;27246;52.376;4.628;2022-11-20T14:51:39;100441.38;;;1.91;100.00
24752;BME280;27246;52.376;4.628;2022-11-20T14:57:03;100433.22;;;1.91;100.00
24752;BME280;27246;52.376;4.628;2022-11-20T15:02:09;100424.38;;;1.89;100.00
24752;BME280;27246;52.376;4.628;2022-11-20T15:07:27;100415.94;;;1.92;100.00
24752;BME280;27246;52.376;4.628;2022-11-20T15:12:31;100399.41;;;2.14;100.00
24752;BME280;27246;52.376;4.628;2022-11-20T15:17:37;100386.09;;;2.02;100.00
24752;BME280;27246;52.376;4.628;2022-11-20T15:22:41;100377.81;;;1.93;100.00
24752;BME280;27246;52.376;4.628;2022-11-20T15:27:44;100378.78;;;1.92;100.00
24752;BME280;27246;52.376;4.628;2022-11-20T15:32:47;100381.09;;;2.07;100.00
24752;BME280;27246;52.376;4.628;2022-11-20T15:37:50;100375.81;;;2.15;100.00
24752;BME280;27246;52.376;4.628;2022-11-20T15:42:51;100375.25;;;2.11;100.00
24752;BME280;27246;52.376;4.628;2022-11-20T15:48:18;100366.66;;;2.16;100.00
24752;BME280;27246;52.376;4.628;2022-11-20T15:53:20;100362.78;;;2.18;100.00
24752;BME280;27246;52.376;4.628;2022-11-20T15:58:22;100355.22;;;2.22;100.00
24752;BME280;27246;52.376;4.628;2022-11-20T16:03:27;100352.34;;;2.43;100.00
24752;BME280;27246;52.376;4.628;2022-11-20T16:08:29;100344.03;;;2.45;100.00
24752;BME280;27246;52.376;4.628;2022-11-20T16:13:32;100333.16;;;2.54;100.00
24752;BME280;27246;52.376;4.628;2022-11-20T16:18:52;100302.88;;;2.30;100.00
24752;BME280;27246;52.376;4.628;2022-11-20T16:24:02;100272.00;;;2.11;100.00
24752;BME280;27246;52.376;4.628;2022-11-20T16:29:06;100288.00;;;2.24;100.00
24752;BME280;27246;52.376;4.628;2022-11-20T16:34:08;100308.72;;;2.35;100.00
24752;BME280;27246;52.376;4.628;2022-11-20T16:39:13;100311.41;;;2.54;100.00
24752;BME280;27246;52.376;4.628;2022-11-20T16:44:25;100319.84;;;2.51;100.00
24752;BME280;27246;52.376;4.628;2022-11-20T16:49:32;100295.84;;;2.47;100.00
24752;BME280;27246;52.376;4.628;2022-11-20T16:54:34;100308.84;;;2.43;100.00
24752;BME280;27246;52.376;4.628;2022-11-20T16:59:36;100297.69;;;2.46;100.00
24752;BME280;27246;52.376;4.628;2022-11-20T17:04:38;100292.13;;;2.48;100.00
24752;BME280;27246;52.376;4.628;2022-11-20T17:09:50;100271.63;;;2.53;100.00
24752;BME280;27246;52.376;4.628;2022-11-20T17:15:03;100268.19;;;2.51;100.00
24752;BME280;27246;52.376;4.628;2022-11-20T17:20:36;100274.63;;;2.60;100.00
24752;BME280;27246;52.376;4.628;2022-11-20T17:25:39;100263.91;;;2.58;100.00
24752;BME280;27246;52.376;4.628;2022-11-20T17:30:41;100281.56;;;2.82;100.00
24752;BME280;27246;52.376;4.628;2022-11-20T17:35:45;100276.16;;;2.72;100.00
24752;BME280;27246;52.376;4.628;2022-11-20T17:40:47;100275.75;;;2.67;100.00
24752;BME280;27246;52.376;4.628;2022-11-20T17:45:49;100279.56;;;2.84;100.00
24752;BME280;27246;52.376;4.628;2022-11-20T17:50:51;100285.22;;;3.00;100.00
24752;BME280;27246;52.376;4.628;2022-11-20T17:55:56;100283.84;;;2.87;100.00
24752;BME280;27246;52.376;4.628;2022-11-20T18:01:17;100276.16;;;2.72;100.00
24752;BME280;27246;52.376;4.628;2022-11-20T18:06:24;100284.44;;;2.80;100.00
24752;BME280;27246;52.376;4.628;2022-11-20T18:11:28;100298.88;;;2.91;100.00
24752;BME280;27246;52.376;4.628;2022-11-20T18:16:36;100293.78;;;3.06;100.00
24752;BME280;27246;52.376;4.628;2022-11-20T18:21:44;100288.06;;;3.09;100.00
24752;BME280;27246;52.376;4.628;2022-11-20T18:26:45;100269.78;;;2.91;100.00
24752;BME280;27246;52.376;4.628;2022-11-20T18:31:47;100272.50;;;2.91;100.00
24752;BME280;27246;52.376;4.628;2022-11-20T18:36:50;100290.91;;;3.07;100.00
24752;BME280;27246;52.376;4.628;2022-11-20T18:41:53;100289.34;;;3.05;100.00
24752;BME280;27246;52.376;4.628;2022-11-20T18:47:16;100280.66;;;2.91;100.00
24752;BME280;27246;52.376;4.628;2022-11-20T18:52:21;100303.53;;;3.08;100.00
24752;BME280;27246;52.376;4.628;2022-11-20T18:57:25;100311.78;;;3.44;100.00
24752;BME280;27246;52.376;4.628;2022-11-20T19:02:27;100257.91;;;2.92;100.00
24752;BME280;27246;52.376;4.628;2022-11-20T19:07:39;100276.25;;;2.90;100.00
24752;BME280;27246;52.376;4.628;2022-11-20T19:12:42;100283.22;;;3.03;100.00
24752;BME280;27246;52.376;4.628;2022-11-20T19:17:44;100281.41;;;3.21;100.00
24752;BME280;27246;52.376;4.628;2022-11-20T19:22:49;100278.75;;;3.01;100.00
24752;BME280;27246;52.376;4.628;2022-11-20T19:27:51;100289.03;;;3.08;100.00
24752;BME280;27246;52.376;4.628;2022-11-20T19:32:54;100295.16;;;3.19;100.00
24752;BME280;27246;52.376;4.628;2022-11-20T19:37:58;100285.72;;;3.14;100.00
24752;BME280;27246;52.376;4.628;2022-11-20T19:43:05;100301.97;;;3.33;100.00
24752;BME280;27246;52.376;4.628;2022-11-20T19:48:09;100310.22;;;3.41;100.00
24752;BME280;27246;52.376;4.628;2022-11-20T19:53:13;100316.59;;;3.32;100.00
24752;BME280;27246;52.376;4.628;2022-11-20T19:58:15;100318.19;;;3.25;100.00
24752;BME280;27246;52.376;4.628;2022-11-20T20:03:17;100308.91;;;3.18;100.00
24752;BME280;27246;52.376;4.628;2022-11-20T20:08:19;100305.16;;;3.29;100.00
24752;BME280;27246;52.376;4.628;2022-11-20T20:13:20;100309.59;;;3.20;100.00
24752;BME280;27246;52.376;4.628;2022-11-20T20:18:22;100305.19;;;3.47;100.00
24752;BME280;27246;52.376;4.628;2022-11-20T20:23:24;100299.09;;;3.35;100.00
24752;BME280;27246;52.376;4.628;2022-11-20T20:28:26;100324.53;;;3.44;100.00
24752;BME280;27246;52.376;4.628;2022-11-20T20:33:28;100323.88;;;3.59;100.00
24752;BME280;27246;52.376;4.628;2022-11-20T20:38:30;100321.91;;;3.52;100.00
24752;BME280;27246;52.376;4.628;2022-11-20T20:43:32;100334.81;;;3.50;100.00
24752;BME280;27246;52.376;4.628;2022-11-20T20:48:53;100334.13;;;3.48;100.00
24752;BME280;27246;52.376;4.628;2022-11-20T20:53:56;100336.13;;;3.46;100.00
24752;BME280;27246;52.376;4.628;2022-11-20T20:58:58;100349.38;;;3.40;100.00
24752;BME280;27246;52.376;4.628;2022-11-20T21:04:00;100351.47;;;3.47;100.00
24752;BME280;27246;52.376;4.628;2022-11-20T21:09:02;100351.47;;;3.47;100.00
24752;BME280;27246;52.376;4.628;2022-11-20T21:14:04;100352.91;;;3.51;100.00
24752;BME280;27246;52.376;4.628;2022-11-20T21:19:06;100361.81;;;3.43;100.00
24752;BME280;27246;52.376;4.628;2022-11-20T21:24:08;100375.00;;;3.38;100.00
24752;BME280;27246;52.376;4.628;2022-11-20T21:29:10;100380.09;;;3.60;100.00
24752;BME280;27246;52.376;4.628;2022-11-20T21:34:13;100367.53;;;3.40;100.00
24752;BME280;27246;52.376;4.628;2022-11-20T21:39:17;100368.22;;;3.52;100.00
24752;BME280;27246;52.376;4.628;2022-11-20T21:44:25;100382.13;;;3.49;100.00
24752;BME280;27246;52.376;4.628;2022-11-20T21:49:33;100376.13;;;3.45;100.00
24752;BME280;27246;52.376;4.628;2022-11-20T21:54:35;100400.63;;;3.45;100.00
24752;BME280;27246;52.376;4.628;2022-11-20T21:59:39;100396.34;;;3.70;100.00
24752;BME280;27246;52.376;4.628;2022-11-20T22:04:40;100394.16;;;3.46;100.00
24752;BME280;27246;52.376;4.628;2022-11-20T22:09:43;100397.81;;;3.37;100.00
24752;BME280;27246;52.376;4.628;2022-11-20T22:14:46;100396.97;;;3.36;100.00
24752;BME280;27246;52.376;4.628;2022-11-20T22:19:50;100399.84;;;3.25;100.00
24752;BME280;27246;52.376;4.628;2022-11-20T22:24:51;100416.41;;;3.41;100.00
24752;BME280;27246;52.376;4.628;2022-11-20T22:29:53;100426.81;;;3.56;100.00
24752;BME280;27246;52.376;4.628;2022-11-20T22:34:55;100430.25;;;3.58;100.00
24752;BME280;27246;52.376;4.628;2022-11-20T22:39:57;100426.34;;;3.33;100.00
24752;BME280;27246;52.376;4.628;2022-11-20T22:44:58;100424.09;;;3.18;100.00
24752;BME280;27246;52.376;4.628;2022-11-20T22:50:00;100419.59;;;3.37;100.00
24752;BME280;27246;52.376;4.628;2022-11-20T22:55:03;100432.78;;;3.22;100.00
24752;BME280;27246;52.376;4.628;2022-11-20T23:00:05;100436.09;;;3.16;100.00
24752;BME280;27246;52.376;4.628;2022-11-20T23:05:08;100445.84;;;3.28;100.00
24752;BME280;27246;52.376;4.628;2022-11-20T23:10:12;100465.03;;;3.27;100.00
24752;BME280;27246;52.376;4.628;2022-11-20T23:15:14;100459.44;;;3.28;100.00
24752;BME280;27246;52.376;4.628;2022-11-20T23:20:15;100474.44;;;3.42;100.00
24752;BME280;27246;52.376;4.628;2022-11-20T23:25:20;100471.34;;;3.08;100.00
24752;BME280;27246;52.376;4.628;2022-11-20T23:30:22;100466.22;;;3.05;100.00
24752;BME280;27246;52.376;4.628;2022-11-20T23:35:24;100472.78;;;3.12;100.00
24752;BME280;27246;52.376;4.628;2022-11-20T23:40:25;100484.81;;;3.19;100.00
24752;BME280;27246;52.376;4.628;2022-11-20T23:45:27;100477.38;;;3.21;100.00
24752;BME280;27246;52.376;4.628;2022-11-20T23:50:29;100492.53;;;3.14;100.00
24752;BME280;27246;52.376;4.628;2022-11-20T23:55:31;100497.00;;;3.25;100.00
